Latest Weather Observations for Khancoban

IDN60801

Issued at 6:33 pm EST Monday 4 July 2022 (issued every 10 minutes, with the page automatically refreshed every 10 minutes)

About weather observations | Map of weather stations | Latest weather observations for NSW | Other Formats
Station Details ID: 072162 Name: KHANCOBAN AWS Lat: -36.23 Lon: 148.14 Height: 339.3 m
Data from the previous 72 hours. | See also: Recent months at Khancoban
Date/Time
EST
Temp
°C
App
Temp
°C
Dew
Point
°C
Rel
Hum
%
Delta-T
°C
Wind Press
QNH
hPa
Press
MSL
hPa
Rain since
9am
mm
Dir  Spd
km/h
Gust
km/h
Spd
kts
Gust
kts
04/06:30pm 8.2 5.4 3.1 70 2.2 SE 7 13 4 7 1022.0 1022.8 0.0
04/06:00pm 9.7 5.7 3.0 63 2.9 SSE 13 19 7 10 1021.8 1022.5 0.0
04/05:30pm 10.7 6.1 3.5 61 3.2 SSE 17 24 9 13 1021.7 1022.4 0.0
04/05:00pm 11.5 7.3 3.8 59 3.5 SE 15 24 8 13 1021.6 1022.3 0.0
04/04:30pm 13.0 8.8 3.9 54 4.2 SSE 15 22 8 12 1021.2 1022.0 0.0
04/04:00pm 13.8 10.1 4.7 54 4.3 SSE 13 20 7 11 1020.9 1021.7 0.0
04/03:30pm 14.5 10.1 4.5 51 4.7 S 17 20 9 11 1020.7 1021.5 0.0
04/03:00pm 15.0 10.9 4.1 48 5.1 SSE 15 22 8 12 1020.7 1021.5 0.0
04/02:30pm 15.1 10.4 5.0 51 4.8 S 19 32 10 17 1020.6 1021.4 0.0
04/02:00pm 15.2 10.6 5.4 52 4.7 S 19 28 10 15 1020.6 1021.4 0.0
04/01:30pm 15.4 10.0 4.5 48 5.2 S 22 37 12 20 1020.8 1021.6 0.0
04/01:00pm 15.5 11.8 4.6 48 5.2 S 13 20 7 11 1021.0 1021.8 0.0
04/12:30pm 16.1 13.6 3.5 43 5.9 SSE 6 15 3 8 1021.2 1022.0 0.0
04/12:00pm 14.9 11.6 2.4 43 5.6 SE 9 28 5 15 1021.7 1022.4 0.0
04/11:30am 14.2 11.4 5.3 55 4.3 SW 9 13 5 7 1022.3 1023.1 0.0
04/11:00am 12.7 9.5 4.9 59 3.6 SSW 11 19 6 10 1022.6 1023.4 0.0
04/10:30am 9.1 7.3 5.3 77 1.7 WNW 4 11 2 6 1022.9 1023.7 0.0
04/10:00am 7.3 5.2 3.9 79 1.5 NW 4 7 2 4 1023.1 1023.9 0.0
04/09:30am 6.1 3.8 2.6 78 1.5 E 4 7 2 4 1023.0 1023.8 0.0
04/09:00am 4.6 3.0 2.3 85 0.9 CALM 0 6 0 3 1023.0 1023.8 0.0
04/08:30am 1.9 0.0 0.7 92 0.5 CALM 0 0 0 0 1023.1 1023.9 0.0
04/08:00am 1.0 -1.0 0.0 93 0.4 CALM 0 6 0 3 1023.2 1024.0 0.0
04/07:30am 0.9 -2.2 -0.1 93 0.4 ESE 6 9 3 5 1023.2 1024.0 0.0
04/07:00am 1.0 -1.1 -0.5 90 0.5 CALM 0 7 0 4 1023.3 1024.1 0.0
04/06:30am 1.1 -1.3 -0.1 92 0.4 ENE 2 9 1 5 1023.0 1023.8 0.0
04/06:00am 1.1 -1.6 0.1 93 0.4 NNW 4 9 2 5 1022.6 1023.4 0.0
04/05:30am 0.9 -2.3 -0.2 92 0.4 NNE 6 9 3 5 1022.2 1023.0 0.0
04/05:00am 2.2 0.0 1.2 93 0.4 ENE 2 7 1 4 1022.1 1022.9 0.0
04/04:30am 0.9 -2.3 -0.2 92 0.4 N 6 11 3 6 1022.1 1022.9 0.0
04/04:00am 1.5 -0.9 -0.1 89 0.6 ENE 2 9 1 5 1022.2 1023.0 0.0
04/03:30am 1.5 -1.5 0.6 94 0.3 N 6 9 3 5 1022.4 1023.2 0.0
04/03:00am 1.4 -0.6 0.2 92 0.4 CALM 0 0 0 0 1022.4 1023.2 0.0
04/02:30am 1.2 -1.2 -0.4 89 0.6 ENE 2 6 1 3 1022.5 1023.3 0.0
04/02:00am 2.4 -0.2 0.9 90 0.6 ENE 4 6 2 3 1022.6 1023.4 0.0
04/01:30am 2.0 0.1 0.5 90 0.6 CALM 0 0 0 0 1022.8 1023.6 0.0
04/01:00am 2.6 0.4 1.1 90 0.6 W 2 7 1 4 1023.1 1023.9 0.0
04/12:30am 2.4 0.2 0.9 90 0.6 WSW 2 7 1 4 1023.1 1023.9 0.0
04/12:00am 2.6 0.7 0.3 85 0.9 CALM 0 0 0 0 1023.3 1024.1 0.0
 
Date/Time
EST
Temp
°C
App
Temp
°C
Dew
Point
°C
Rel
Hum
%
Delta-T
°C
Wind Press
QNH
hPa
Press
MSL
hPa
Rain since
9am
mm
Dir  Spd
km/h
Gust
km/h
Spd
kts
Gust
kts
03/11:30pm 3.4 1.6 1.1 85 0.9 CALM 0 0 0 0 1023.3 1024.1 0.0
03/11:00pm 4.1 2.0 1.8 85 0.9 SSW 2 6 1 3 1023.4 1024.2 0.0
03/10:30pm 3.6 1.8 1.0 83 1.0 CALM 0 0 0 0 1023.3 1024.1 0.0
03/10:00pm 4.8 2.6 1.1 77 1.5 E 2 7 1 4 1023.3 1024.1 0.0
03/09:30pm 5.2 2.3 1.3 76 1.6 NNW 6 7 3 4 1023.2 1024.0 0.0
03/09:00pm 6.1 3.2 1.2 71 2.0 SSW 6 9 3 5 1023.3 1024.1 0.0
03/08:30pm 6.5 3.5 1.0 68 2.2 SE 6 13 3 7 1023.5 1024.3 0.0
03/08:00pm 7.0 3.7 2.5 73 1.9 SSE 9 15 5 8 1023.4 1024.2 0.0
03/07:30pm 9.5 6.0 1.4 57 3.4 SSE 9 13 5 7 1023.2 1024.0 0.0
03/07:00pm 9.1 5.8 2.4 63 2.9 S 9 19 5 10 1023.0 1023.8 0.0
03/06:30pm 10.1 6.3 2.0 57 3.5 S 11 19 6 10 1022.7 1023.5 0.0
03/06:00pm 10.4 6.3 2.5 58 3.4 SSE 13 26 7 14 1022.6 1023.4 0.0
03/05:30pm 11.8 7.8 2.8 54 4.0 SSE 13 20 7 11 1022.4 1023.2 0.0
03/05:00pm 13.4 8.6 2.6 48 4.8 SE 17 28 9 15 1022.2 1023.0 0.0
03/04:30pm 14.1 9.3 2.7 46 5.2 SSE 17 32 9 17 1022.0 1022.8 0.0
03/04:00pm 14.5 9.2 3.0 46 5.2 SSE 20 30 11 16 1021.9 1022.6 0.0
03/03:30pm 14.7 8.6 2.9 45 5.4 S 24 39 13 21 1021.7 1022.4 0.0
03/03:00pm 15.6 10.4 2.7 42 5.9 SSE 19 32 10 17 1021.3 1022.1 0.0
03/02:30pm 16.2 11.3 3.9 44 5.8 SSE 19 28 10 15 1021.6 1022.3 0.0
03/02:00pm 16.2 12.1 4.6 46 5.5 S 15 26 8 14 1021.6 1022.3 0.0
03/01:30pm 16.5 12.3 3.9 43 6.0 SSW 15 26 8 14 1021.9 1022.6 0.0
03/01:00pm 15.8 11.7 4.5 47 5.4 S 15 24 8 13 1022.2 1023.0 0.0
03/12:30pm 14.0 12.1 7.5 65 3.3 W 7 15 4 8 1022.6 1023.4 0.0
03/12:00pm 11.4 10.2 6.3 71 2.4 NNE 2 6 1 3 1023.2 1024.0 0.0
03/11:30am 11.2 8.9 5.9 70 2.5 W 7 11 4 6 1023.5 1024.3 0.0
03/11:00am 11.7 9.5 6.2 69 2.6 NNW 7 9 4 5 1023.7 1024.5 0.0
03/10:30am 10.9 8.6 5.7 70 2.4 WNW 7 9 4 5 1023.9 1024.7 0.0
03/10:00am 8.8 7.1 5.9 82 1.3 SSW 4 7 2 4 1024.2 1025.0 0.0
03/09:30am 7.9 6.2 5.7 86 1.0 WNW 4 6 2 3 1024.3 1025.1 0.0
03/09:00am 7.2 5.8 5.3 88 0.9 NNE 2 7 1 4 1024.3 1025.1 0.0
03/08:30am 4.6 3.3 4.0 96 0.3 CALM 0 6 0 3 1024.1 1024.9 0.0
03/08:00am 3.0 1.4 2.3 95 0.3 CALM 0 0 0 0 1024.3 1025.1 0.0
03/07:30am 2.6 0.9 1.6 93 0.4 CALM 0 0 0 0 1024.0 1024.8 0.0
03/07:00am 1.9 -0.7 1.2 95 0.3 ENE 4 9 2 5 1023.7 1024.5 0.0
03/06:30am 2.5 0.8 1.6 94 0.4 CALM 0 4 0 2 1023.8 1024.6 0.0
03/06:00am 2.4 -0.5 1.5 94 0.4 E 6 7 3 4 1023.6 1024.4 0.0
03/05:30am 2.7 1.0 2.0 95 0.3 CALM 0 0 0 0 1023.5 1024.3 0.0
03/05:00am 2.9 1.3 2.2 95 0.3 CALM 0 0 0 0 1023.4 1024.2 0.0
03/04:30am 3.3 1.7 2.6 95 0.3 CALM 0 0 0 0 1023.3 1024.1 0.0
03/04:00am 3.0 1.0 2.3 95 0.3 N 2 7 1 4 1023.3 1024.1 0.0
03/03:30am 2.7 0.6 1.5 92 0.5 ENE 2 7 1 4 1023.5 1024.3 0.0
03/03:00am 2.5 0.7 1.2 91 0.5 CALM 0 0 0 0 1023.7 1024.5 0.0
03/02:30am 3.2 1.2 2.2 93 0.4 E 2 9 1 5 1024.0 1024.8 0.0
03/02:00am 3.2 0.5 2.5 95 0.3 W 6 11 3 6 1024.3 1025.1 0.0
03/01:30am 3.5 0.6 2.6 94 0.4 NE 7 9 4 5 1024.6 1025.4 0.0
03/01:00am 3.1 1.4 1.9 92 0.5 CALM 0 6 0 3 1024.9 1025.7 0.0
03/12:30am 3.7 0.8 2.7 93 0.4 S 7 11 4 6 1024.8 1025.6 0.0
03/12:00am 3.0 -0.4 2.1 94 0.4 NNW 9 11 5 6 1025.0 1025.8 0.0
 
Date/Time
EST
Temp
°C
App
Temp
°C
Dew
Point
°C
Rel
Hum
%
Delta-T
°C
Wind Press
QNH
hPa
Press
MSL
hPa
Rain since
9am
mm
Dir  Spd
km/h
Gust
km/h
Spd
kts
Gust
kts
02/11:30pm 3.4 0.7 2.4 93 0.4 NE 6 9 3 5 1025.1 1025.9 0.0
02/11:00pm 3.5 2.0 2.8 95 0.3 CALM 0 6 0 3 1025.4 1026.2 0.0
02/10:30pm 3.4 1.4 2.1 91 0.5 NE 2 7 1 4 1025.3 1026.1 0.0
02/10:00pm 4.0 2.1 2.8 92 0.5 NNE 2 9 1 5 1025.0 1025.8 0.0
02/09:30pm 3.8 1.0 2.3 90 0.6 ESE 6 11 3 6 1025.3 1026.1 0.0
02/09:00pm 4.1 2.1 2.5 89 0.7 S 2 7 1 4 1025.3 1026.1 0.0
02/08:30pm 4.9 2.2 2.8 86 0.9 ESE 6 7 3 4 1025.2 1026.0 0.0
02/08:00pm 5.4 2.9 3.7 89 0.7 E 6 7 3 4 1025.2 1026.0 0.0
02/07:30pm 5.3 3.5 3.3 87 0.8 S 2 7 1 4 1025.1 1025.9 0.0
02/07:00pm 5.6 3.9 3.8 88 0.8 ENE 2 7 1 4 1025.0 1025.8 0.0
02/06:30pm 5.2 2.3 2.6 83 1.1 ENE 7 13 4 7 1025.0 1025.8 0.0
02/06:00pm 6.5 4.5 4.2 85 1.0 E 4 9 2 5 1024.8 1025.6 0.0
02/05:30pm 7.0 5.2 3.6 79 1.5 ENE 2 6 1 3 1024.4 1025.3 0.0
02/05:00pm 8.5 7.2 6.0 84 1.2 W 2 9 1 5 1024.3 1025.1 0.0
02/04:30pm 10.6 8.7 6.9 78 1.8 E 6 11 3 6 1024.3 1025.1 0.0
02/04:00pm 12.2 10.3 6.9 70 2.6 NNW 6 7 3 4 1023.9 1024.7 0.0
02/03:30pm 14.1 12.8 6.0 58 3.9 SW 2 6 1 3 1023.9 1024.7 0.0
02/03:00pm 13.6 11.9 6.0 60 3.7 NW 4 7 2 4 1024.1 1024.9 0.0
02/02:30pm 12.1 9.4 5.7 65 3.0 WNW 9 11 5 6 1023.9 1024.7 0.0
02/02:00pm 13.0 10.7 4.9 58 3.8 NW 6 9 3 5 1023.9 1024.7 0.0
02/01:30pm 13.0 10.1 6.4 64 3.2 NNW 11 13 6 7 1024.2 1025.0 0.0
02/01:00pm 12.8 9.9 4.8 58 3.7 NNW 9 11 5 6 1024.6 1025.4 0.0
02/12:30pm 12.0 9.8 5.2 63 3.2 NW 6 9 3 5 1024.9 1025.7 0.0
02/12:00pm 10.4 7.8 6.0 74 2.1 WNW 9 13 5 7 1025.5 1026.3 0.0
02/11:30am 8.6 6.4 5.4 80 1.5 N 6 9 3 5 1026.0 1026.8 0.0
02/11:00am 9.1 7.0 5.7 79 1.6 WSW 6 9 3 5 1026.5 1027.3 0.0
02/10:30am 5.6 4.0 4.4 92 0.5 WNW 2 7 1 4 1027.2 1028.1 0.0
02/10:00am 4.8 3.5 4.1 95 0.3 CALM 0 0 0 0 1027.5 1028.4 0.0
02/09:30am 3.6 2.1 2.9 95 0.3 CALM 0 0 0 0 1027.7 1028.5 0.0
02/09:00am 3.2 1.7 2.8 97 0.2 CALM 0 0 0 0 1027.7 1028.5 0.0
02/08:30am 2.3 0.6 1.6 95 0.3 CALM 0 0 0 0 1027.5 1028.4 0.0
02/08:00am 2.3 0.2 1.7 96 0.2 NNE 2 7 1 4 1027.3 1028.2 0.0
02/07:30am 2.0 0.2 1.1 94 0.3 CALM 0 0 0 0 1027.2 1028.1 0.0
02/07:00am 2.7 1.0 2.0 95 0.3 CALM 0 0 0 0 1027.1 1028.0 0.0
02/06:30am 2.2 0.4 1.2 93 0.4 CALM 0 0 0 0 1026.7 1027.5 0.0
02/06:00am 2.6 0.9 1.7 94 0.4 CALM 0 0 0 0 1026.5 1027.3 0.0
02/05:30am 3.1 0.1 1.9 92 0.5 SSW 7 9 4 5 1026.4 1027.2 0.0
02/05:00am 2.9 1.2 1.9 93 0.4 CALM 0 0 0 0 1026.2 1027.0 0.0
02/04:30am 3.1 1.0 1.9 92 0.5 S 2 7 1 4 1026.2 1027.0 0.0
02/04:00am 3.3 1.6 2.0 91 0.5 CALM 0 0 0 0 1026.2 1027.0 0.0
02/03:30am 3.2 0.8 1.9 91 0.5 NNW 4 9 2 5 1026.1 1026.9 0.0
02/03:00am 4.7 2.4 2.6 86 0.9 SE 4 9 2 5 1026.5 1027.3 0.0
02/02:30am 4.1 2.5 2.5 89 0.7 CALM 0 0 0 0 1026.8 1027.7 0.0
02/02:00am 5.0 3.1 2.7 85 1.0 ESE 2 6 1 3 1026.8 1027.7 0.0
02/01:30am 5.3 2.6 2.5 82 1.2 NE 6 11 3 6 1026.7 1027.5 0.0
02/01:00am 5.8 3.8 2.3 78 1.4 N 2 7 1 4 1026.7 1027.5 0.0
02/12:30am 5.2 2.4 3.2 87 0.8 ESE 7 11 4 6 1026.8 1027.7 0.0
02/12:00am 5.8 3.1 3.6 86 0.9 NW 7 13 4 7 1027.0 1027.9 0.0
 
Date/Time
EST
Temp
°C
App
Temp
°C
Dew
Point
°C
Rel
Hum
%
Delta-T
°C
Wind Press
QNH
hPa
Press
MSL
hPa
Rain since
9am
mm
Dir  Spd
km/h
Gust
km/h
Spd
kts
Gust
kts
01/11:30pm 5.6 4.2 3.4 86 0.9 CALM 0 6 0 3 1027.2 1028.1 0.0
01/11:00pm 5.3 2.8 3.6 89 0.7 NNW 6 7 3 4 1027.4 1028.3 0.0
01/10:30pm 6.1 3.6 3.6 84 1.1 S 6 9 3 5 1027.8 1028.6 0.0
01/10:00pm 6.4 4.7 4.1 85 1.0 S 2 9 1 5 1028.1 1028.9 0.0
01/09:30pm 6.2 4.2 4.2 87 0.9 SE 4 9 2 5 1028.2 1029.0 0.0
01/09:00pm 7.0 5.9 5.2 88 0.8 CALM 0 0 0 0 1028.3 1029.1 0.0
01/08:30pm 6.6 4.3 4.9 89 0.8 SW 6 11 3 6 1028.2 1029.0 0.0
01/08:00pm 6.9 5.8 5.1 88 0.8 CALM 0 7 0 4 1028.0 1028.8 0.0
01/07:30pm 7.2 5.0 5.2 87 0.9 NW 6 7 3 4 1027.5 1028.4 0.0
01/07:00pm 7.6 5.9 5.7 88 0.9 NW 4 7 2 4 1026.9 1027.8 0.0

Other formats

Comma delimited format used in spreadsheet applications
http://www.bom.gov.au/fwo/IDN60801/IDN60801.94919.axf

JavaScript Object Notation format (JSON) in row-major order
http://www.bom.gov.au/fwo/IDN60801/IDN60801.94919.json

Data quality

Most of these data are generated automatically and are frequently updated. Quality checks on data are not normally performed. It is possible for incorrect values to appear. Refer to information at About Latest Weather Observations and please check the disclaimer before using these data.